sensor_id;sensor_type;location;lat;lon;timestamp;P1;durP1;ratioP1;P2;durP2;ratioP2
39968;SDS011;25648;47.808;19.004;2022-09-12T00:01:03;5.55;;;4.10;;
39968;SDS011;25648;47.808;19.004;2022-09-12T00:03:29;5.65;;;4.50;;
39968;SDS011;25648;47.808;19.004;2022-09-12T00:05:55;5.80;;;4.40;;
39968;SDS011;25648;47.808;19.004;2022-09-12T00:08:20;6.65;;;4.45;;
39968;SDS011;25648;47.808;19.004;2022-09-12T00:10:46;6.85;;;4.50;;
39968;SDS011;25648;47.808;19.004;2022-09-12T00:13:12;7.35;;;4.70;;
39968;SDS011;25648;47.808;19.004;2022-09-12T00:15:38;7.90;;;4.18;;
39968;SDS011;25648;47.808;19.004;2022-09-12T00:18:06;6.28;;;4.38;;
39968;SDS011;25648;47.808;19.004;2022-09-12T00:20:33;5.47;;;3.80;;
39968;SDS011;25648;47.808;19.004;2022-09-12T00:22:59;6.10;;;4.10;;
39968;SDS011;25648;47.808;19.004;2022-09-12T00:25:25;6.13;;;4.20;;
39968;SDS011;25648;47.808;19.004;2022-09-12T00:27:51;5.15;;;3.90;;
39968;SDS011;25648;47.808;19.004;2022-09-12T00:30:17;5.25;;;3.97;;
39968;SDS011;25648;47.808;19.004;2022-09-12T00:32:43;6.25;;;4.00;;
39968;SDS011;25648;47.808;19.004;2022-09-12T00:35:09;6.38;;;4.22;;
39968;SDS011;25648;47.808;19.004;2022-09-12T00:37:34;5.90;;;3.97;;
39968;SDS011;25648;47.808;19.004;2022-09-12T00:40:00;5.03;;;3.67;;
39968;SDS011;25648;47.808;19.004;2022-09-12T00:42:26;7.97;;;4.20;;
39968;SDS011;25648;47.808;19.004;2022-09-12T00:44:52;6.55;;;4.60;;
39968;SDS011;25648;47.808;19.004;2022-09-12T00:52:28;5.95;;;4.00;;
39968;SDS011;25648;47.808;19.004;2022-09-12T00:57:24;7.47;;;4.00;;
39968;SDS011;25648;47.808;19.004;2022-09-12T01:00:18;6.88;;;4.10;;
39968;SDS011;25648;47.808;19.004;2022-09-12T01:02:45;7.20;;;4.43;;
39968;SDS011;25648;47.808;19.004;2022-09-12T01:05:15;7.18;;;4.72;;
39968;SDS011;25648;47.808;19.004;2022-09-12T01:07:42;5.93;;;4.35;;
39968;SDS011;25648;47.808;19.004;2022-09-12T01:10:08;8.10;;;4.50;;
39968;SDS011;25648;47.808;19.004;2022-09-12T01:12:36;5.88;;;4.00;;
39968;SDS011;25648;47.808;19.004;2022-09-12T01:15:05;6.68;;;4.30;;
39968;SDS011;25648;47.808;19.004;2022-09-12T01:17:35;5.78;;;4.50;;
39968;SDS011;25648;47.808;19.004;2022-09-12T01:31:12;7.57;;;4.20;;
39968;SDS011;25648;47.808;19.004;2022-09-12T01:33:55;6.50;;;4.82;;
39968;SDS011;25648;47.808;19.004;2022-09-12T01:39:08;5.63;;;4.00;;
39968;SDS011;25648;47.808;19.004;2022-09-12T01:47:11;5.95;;;4.40;;
39968;SDS011;25648;47.808;19.004;2022-09-12T01:49:47;5.90;;;4.25;;
39968;SDS011;25648;47.808;19.004;2022-09-12T01:55:06;5.55;;;4.20;;
39968;SDS011;25648;47.808;19.004;2022-09-12T01:58:37;5.88;;;4.22;;
39968;SDS011;25648;47.808;19.004;2022-09-12T02:00:54;6.35;;;4.47;;
39968;SDS011;25648;47.808;19.004;2022-09-12T02:03:26;6.22;;;4.32;;
39968;SDS011;25648;47.808;19.004;2022-09-12T02:06:05;5.97;;;4.40;;
39968;SDS011;25648;47.808;19.004;2022-09-12T02:08:52;7.60;;;4.55;;
39968;SDS011;25648;47.808;19.004;2022-09-12T02:11:22;6.35;;;4.35;;
39968;SDS011;25648;47.808;19.004;2022-09-12T02:16:27;5.93;;;4.63;;
39968;SDS011;25648;47.808;19.004;2022-09-12T02:19:06;6.03;;;4.70;;
39968;SDS011;25648;47.808;19.004;2022-09-12T02:21:38;6.50;;;4.40;;
39968;SDS011;25648;47.808;19.004;2022-09-12T02:24:09;7.25;;;4.50;;
39968;SDS011;25648;47.808;19.004;2022-09-12T02:26:40;7.82;;;4.18;;
39968;SDS011;25648;47.808;19.004;2022-09-12T02:29:36;7.40;;;5.03;;
39968;SDS011;25648;47.808;19.004;2022-09-12T02:33:04;7.65;;;5.20;;
39968;SDS011;25648;47.808;19.004;2022-09-12T02:35:10;6.53;;;5.00;;
39968;SDS011;25648;47.808;19.004;2022-09-12T02:40:12;7.50;;;5.22;;
39968;SDS011;25648;47.808;19.004;2022-09-12T02:42:39;7.78;;;5.53;;
39968;SDS011;25648;47.808;19.004;2022-09-12T02:45:05;7.20;;;5.40;;
39968;SDS011;25648;47.808;19.004;2022-09-12T02:50:17;9.30;;;6.43;;
39968;SDS011;25648;47.808;19.004;2022-09-12T02:52:43;8.13;;;6.10;;
39968;SDS011;25648;47.808;19.004;2022-09-12T02:55:10;10.25;;;6.18;;
39968;SDS011;25648;47.808;19.004;2022-09-12T02:57:37;7.35;;;5.50;;
39968;SDS011;25648;47.808;19.004;2022-09-12T03:00:03;7.75;;;5.88;;
39968;SDS011;25648;47.808;19.004;2022-09-12T03:03:14;7.18;;;5.90;;
39968;SDS011;25648;47.808;19.004;2022-09-12T03:19:08;7.93;;;6.07;;
39968;SDS011;25648;47.808;19.004;2022-09-12T03:21:44;6.85;;;5.50;;
39968;SDS011;25648;47.808;19.004;2022-09-12T03:27:02;7.35;;;5.80;;
39968;SDS011;25648;47.808;19.004;2022-09-12T03:29:35;6.95;;;5.53;;
39968;SDS011;25648;47.808;19.004;2022-09-12T03:32:02;8.13;;;4.82;;
39968;SDS011;25648;47.808;19.004;2022-09-12T03:34:28;6.45;;;5.00;;
39968;SDS011;25648;47.808;19.004;2022-09-12T03:36:53;6.38;;;4.75;;
39968;SDS011;25648;47.808;19.004;2022-09-12T03:39:19;7.50;;;5.10;;
39968;SDS011;25648;47.808;19.004;2022-09-12T03:44:25;7.38;;;5.35;;
39968;SDS011;25648;47.808;19.004;2022-09-12T03:46:50;6.78;;;5.18;;
39968;SDS011;25648;47.808;19.004;2022-09-12T03:49:16;7.15;;;5.00;;
39968;SDS011;25648;47.808;19.004;2022-09-12T03:51:42;8.38;;;5.95;;
39968;SDS011;25648;47.808;19.004;2022-09-12T03:54:08;10.88;;;5.97;;
39968;SDS011;25648;47.808;19.004;2022-09-12T03:56:34;8.98;;;6.38;;
39968;SDS011;25648;47.808;19.004;2022-09-12T03:59:03;8.35;;;6.50;;
39968;SDS011;25648;47.808;19.004;2022-09-12T04:01:30;7.68;;;5.93;;
39968;SDS011;25648;47.808;19.004;2022-09-12T04:03:56;11.07;;;5.85;;
39968;SDS011;25648;47.808;19.004;2022-09-12T04:06:21;7.13;;;5.40;;
39968;SDS011;25648;47.808;19.004;2022-09-12T04:08:48;7.70;;;5.53;;
39968;SDS011;25648;47.808;19.004;2022-09-12T04:11:15;9.20;;;6.05;;
39968;SDS011;25648;47.808;19.004;2022-09-12T04:13:42;8.68;;;6.07;;
39968;SDS011;25648;47.808;19.004;2022-09-12T04:16:09;7.55;;;5.63;;
39968;SDS011;25648;47.808;19.004;2022-09-12T04:18:36;7.82;;;5.70;;
39968;SDS011;25648;47.808;19.004;2022-09-12T04:21:03;9.40;;;6.32;;
39968;SDS011;25648;47.808;19.004;2022-09-12T04:23:29;9.43;;;6.30;;
39968;SDS011;25648;47.808;19.004;2022-09-12T04:25:56;8.43;;;5.72;;
39968;SDS011;25648;47.808;19.004;2022-09-12T04:28:23;7.65;;;5.72;;
39968;SDS011;25648;47.808;19.004;2022-09-12T04:30:49;9.85;;;5.75;;
39968;SDS011;25648;47.808;19.004;2022-09-12T04:33:15;8.30;;;5.47;;
39968;SDS011;25648;47.808;19.004;2022-09-12T04:35:42;7.88;;;5.85;;
39968;SDS011;25648;47.808;19.004;2022-09-12T04:38:09;7.97;;;5.65;;
39968;SDS011;25648;47.808;19.004;2022-09-12T04:40:35;8.00;;;5.80;;
39968;SDS011;25648;47.808;19.004;2022-09-12T04:43:01;6.22;;;5.00;;
39968;SDS011;25648;47.808;19.004;2022-09-12T04:45:27;8.55;;;5.60;;
39968;SDS011;25648;47.808;19.004;2022-09-12T04:47:52;7.72;;;5.32;;
39968;SDS011;25648;47.808;19.004;2022-09-12T04:50:18;6.35;;;5.05;;
39968;SDS011;25648;47.808;19.004;2022-09-12T04:52:50;7.50;;;5.50;;
39968;SDS011;25648;47.808;19.004;2022-09-12T04:55:17;9.57;;;6.32;;
39968;SDS011;25648;47.808;19.004;2022-09-12T04:57:43;8.32;;;5.20;;
39968;SDS011;25648;47.808;19.004;2022-09-12T05:00:09;7.53;;;5.60;;
39968;SDS011;25648;47.808;19.004;2022-09-12T05:02:41;7.90;;;5.80;;
39968;SDS011;25648;47.808;19.004;2022-09-12T05:05:08;9.45;;;6.32;;
39968;SDS011;25648;47.808;19.004;2022-09-12T05:07:35;8.35;;;5.85;;
39968;SDS011;25648;47.808;19.004;2022-09-12T05:10:01;14.70;;;8.80;;
39968;SDS011;25648;47.808;19.004;2022-09-12T05:12:28;7.32;;;5.72;;
39968;SDS011;25648;47.808;19.004;2022-09-12T05:14:55;8.10;;;5.97;;
39968;SDS011;25648;47.808;19.004;2022-09-12T05:17:20;7.85;;;5.85;;
39968;SDS011;25648;47.808;19.004;2022-09-12T05:19:46;10.13;;;6.35;;
39968;SDS011;25648;47.808;19.004;2022-09-12T05:22:12;9.75;;;6.38;;
39968;SDS011;25648;47.808;19.004;2022-09-12T05:24:38;12.38;;;5.88;;
39968;SDS011;25648;47.808;19.004;2022-09-12T05:27:10;9.13;;;6.50;;
39968;SDS011;25648;47.808;19.004;2022-09-12T05:29:35;8.68;;;6.40;;
39968;SDS011;25648;47.808;19.004;2022-09-12T05:32:01;7.50;;;5.60;;
39968;SDS011;25648;47.808;19.004;2022-09-12T05:34:27;8.93;;;6.30;;
39968;SDS011;25648;47.808;19.004;2022-09-12T05:36:53;8.60;;;5.90;;
39968;SDS011;25648;47.808;19.004;2022-09-12T05:39:18;8.50;;;6.03;;
39968;SDS011;25648;47.808;19.004;2022-09-12T05:41:44;8.65;;;5.90;;
39968;SDS011;25648;47.808;19.004;2022-09-12T05:44:10;9.18;;;6.47;;
39968;SDS011;25648;47.808;19.004;2022-09-12T05:46:39;7.50;;;5.50;;
39968;SDS011;25648;47.808;19.004;2022-09-12T05:49:10;7.95;;;5.32;;
39968;SDS011;25648;47.808;19.004;2022-09-12T05:51:38;8.93;;;5.70;;
39968;SDS011;25648;47.808;19.004;2022-09-12T05:54:06;7.95;;;5.70;;
39968;SDS011;25648;47.808;19.004;2022-09-12T05:56:36;8.15;;;5.55;;
39968;SDS011;25648;47.808;19.004;2022-09-12T05:59:04;8.55;;;5.75;;
39968;SDS011;25648;47.808;19.004;2022-09-12T06:01:32;9.52;;;6.45;;
39968;SDS011;25648;47.808;19.004;2022-09-12T06:03:59;8.13;;;5.78;;
39968;SDS011;25648;47.808;19.004;2022-09-12T06:06:27;8.60;;;5.68;;
39968;SDS011;25648;47.808;19.004;2022-09-12T06:09:00;7.60;;;5.53;;
39968;SDS011;25648;47.808;19.004;2022-09-12T06:11:29;7.85;;;6.10;;
39968;SDS011;25648;47.808;19.004;2022-09-12T06:13:56;9.48;;;6.18;;
39968;SDS011;25648;47.808;19.004;2022-09-12T06:16:24;7.75;;;6.00;;
39968;SDS011;25648;47.808;19.004;2022-09-12T06:18:58;8.98;;;6.25;;
39968;SDS011;25648;47.808;19.004;2022-09-12T06:23:59;7.93;;;5.95;;
39968;SDS011;25648;47.808;19.004;2022-09-12T06:26:25;8.35;;;6.15;;
39968;SDS011;25648;47.808;19.004;2022-09-12T06:28:52;7.68;;;6.30;;
39968;SDS011;25648;47.808;19.004;2022-09-12T06:31:20;8.63;;;6.00;;
39968;SDS011;25648;47.808;19.004;2022-09-12T06:33:49;8.57;;;6.32;;
39968;SDS011;25648;47.808;19.004;2022-09-12T06:38:46;7.50;;;5.45;;
39968;SDS011;25648;47.808;19.004;2022-09-12T06:41:15;7.28;;;5.25;;
39968;SDS011;25648;47.808;19.004;2022-09-12T06:43:41;8.30;;;6.00;;
39968;SDS011;25648;47.808;19.004;2022-09-12T06:46:08;11.88;;;6.68;;
39968;SDS011;25648;47.808;19.004;2022-09-12T06:48:34;11.77;;;7.20;;
39968;SDS011;25648;47.808;19.004;2022-09-12T06:51:01;8.77;;;6.25;;
39968;SDS011;25648;47.808;19.004;2022-09-12T06:53:34;7.75;;;5.30;;
39968;SDS011;25648;47.808;19.004;2022-09-12T06:56:04;10.68;;;7.60;;
39968;SDS011;25648;47.808;19.004;2022-09-12T06:58:35;8.82;;;6.47;;
39968;SDS011;25648;47.808;19.004;2022-09-12T07:01:08;7.35;;;5.63;;
39968;SDS011;25648;47.808;19.004;2022-09-12T07:03:35;11.07;;;6.32;;
39968;SDS011;25648;47.808;19.004;2022-09-12T07:06:02;8.00;;;5.57;;
39968;SDS011;25648;47.808;19.004;2022-09-12T07:08:29;7.90;;;4.78;;
39968;SDS011;25648;47.808;19.004;2022-09-12T07:10:56;8.27;;;5.30;;
39968;SDS011;25648;47.808;19.004;2022-09-12T07:13:23;6.28;;;5.07;;
39968;SDS011;25648;47.808;19.004;2022-09-12T07:15:49;7.43;;;5.15;;
39968;SDS011;25648;47.808;19.004;2022-09-12T07:18:15;7.25;;;5.43;;
39968;SDS011;25648;47.808;19.004;2022-09-12T07:20:41;7.00;;;5.55;;
39968;SDS011;25648;47.808;19.004;2022-09-12T07:23:07;7.80;;;5.25;;
39968;SDS011;25648;47.808;19.004;2022-09-12T07:25:33;7.22;;;5.32;;
39968;SDS011;25648;47.808;19.004;2022-09-12T07:27:59;9.23;;;5.57;;
39968;SDS011;25648;47.808;19.004;2022-09-12T07:30:24;6.40;;;4.88;;
39968;SDS011;25648;47.808;19.004;2022-09-12T07:32:51;6.35;;;4.78;;
39968;SDS011;25648;47.808;19.004;2022-09-12T07:35:22;6.47;;;4.90;;
39968;SDS011;25648;47.808;19.004;2022-09-12T07:37:50;6.15;;;4.82;;
39968;SDS011;25648;47.808;19.004;2022-09-12T07:40:16;7.03;;;5.10;;
39968;SDS011;25648;47.808;19.004;2022-09-12T07:42:42;5.93;;;4.78;;
39968;SDS011;25648;47.808;19.004;2022-09-12T07:45:11;6.80;;;5.05;;
39968;SDS011;25648;47.808;19.004;2022-09-12T07:47:37;7.88;;;6.30;;
39968;SDS011;25648;47.808;19.004;2022-09-12T07:50:04;7.03;;;5.00;;
39968;SDS011;25648;47.808;19.004;2022-09-12T07:52:30;7.15;;;4.82;;
39968;SDS011;25648;47.808;19.004;2022-09-12T07:54:56;7.75;;;4.90;;
39968;SDS011;25648;47.808;19.004;2022-09-12T07:57:23;5.57;;;4.53;;
39968;SDS011;25648;47.808;19.004;2022-09-12T07:59:52;5.80;;;4.30;;
39968;SDS011;25648;47.808;19.004;2022-09-12T08:02:18;6.47;;;4.70;;
39968;SDS011;25648;47.808;19.004;2022-09-12T08:04:44;7.68;;;4.82;;
39968;SDS011;25648;47.808;19.004;2022-09-12T08:07:11;6.88;;;4.80;;
39968;SDS011;25648;47.808;19.004;2022-09-12T08:09:37;8.52;;;4.78;;
39968;SDS011;25648;47.808;19.004;2022-09-12T08:12:02;5.32;;;4.03;;
39968;SDS011;25648;47.808;19.004;2022-09-12T08:14:28;6.35;;;4.50;;
39968;SDS011;25648;47.808;19.004;2022-09-12T08:16:54;8.10;;;4.10;;
39968;SDS011;25648;47.808;19.004;2022-09-12T08:19:20;5.38;;;4.03;;
39968;SDS011;25648;47.808;19.004;2022-09-12T08:21:46;5.55;;;3.75;;
39968;SDS011;25648;47.808;19.004;2022-09-12T08:24:15;8.60;;;4.18;;
39968;SDS011;25648;47.808;19.004;2022-09-12T08:26:41;8.18;;;3.60;;
39968;SDS011;25648;47.808;19.004;2022-09-12T08:29:07;6.88;;;3.97;;
39968;SDS011;25648;47.808;19.004;2022-09-12T08:34:06;5.60;;;3.75;;
39968;SDS011;25648;47.808;19.004;2022-09-12T08:36:32;6.93;;;4.10;;
39968;SDS011;25648;47.808;19.004;2022-09-12T08:39:00;4.70;;;3.65;;
39968;SDS011;25648;47.808;19.004;2022-09-12T08:49:28;5.22;;;3.63;;
39968;SDS011;25648;47.808;19.004;2022-09-12T08:52:24;4.75;;;3.50;;
39968;SDS011;25648;47.808;19.004;2022-09-12T08:54:48;7.00;;;3.50;;
39968;SDS011;25648;47.808;19.004;2022-09-12T08:57:14;5.10;;;3.30;;
39968;SDS011;25648;47.808;19.004;2022-09-12T08:59:40;5.93;;;3.63;;
39968;SDS011;25648;47.808;19.004;2022-09-12T09:02:27;7.82;;;3.63;;
39968;SDS011;25648;47.808;19.004;2022-09-12T09:05:12;4.37;;;3.30;;
39968;SDS011;25648;47.808;19.004;2022-09-12T09:07:57;4.95;;;3.45;;
39968;SDS011;25648;47.808;19.004;2022-09-12T09:10:28;4.55;;;3.40;;
39968;SDS011;25648;47.808;19.004;2022-09-12T09:16:03;4.38;;;3.20;;
39968;SDS011;25648;47.808;19.004;2022-09-12T09:18:56;5.03;;;3.47;;
39968;SDS011;25648;47.808;19.004;2022-09-12T09:21:33;6.47;;;3.28;;
39968;SDS011;25648;47.808;19.004;2022-09-12T09:24:10;5.45;;;3.83;;
39968;SDS011;25648;47.808;19.004;2022-09-12T09:26:51;8.52;;;4.10;;
39968;SDS011;25648;47.808;19.004;2022-09-12T09:30:03;5.13;;;3.37;;
39968;SDS011;25648;47.808;19.004;2022-09-12T09:32:40;5.57;;;3.22;;
39968;SDS011;25648;47.808;19.004;2022-09-12T09:35:14;4.88;;;3.22;;
39968;SDS011;25648;47.808;19.004;2022-09-12T09:37:43;4.05;;;3.20;;
39968;SDS011;25648;47.808;19.004;2022-09-12T09:40:25;5.22;;;3.45;;
39968;SDS011;25648;47.808;19.004;2022-09-12T09:43:09;4.80;;;3.40;;
39968;SDS011;25648;47.808;19.004;2022-09-12T09:45:40;4.22;;;2.95;;
39968;SDS011;25648;47.808;19.004;2022-09-12T09:50:34;4.82;;;2.90;;
39968;SDS011;25648;47.808;19.004;2022-09-12T09:53:01;4.88;;;2.92;;
39968;SDS011;25648;47.808;19.004;2022-09-12T09:55:29;5.78;;;3.00;;
39968;SDS011;25648;47.808;19.004;2022-09-12T09:58:02;5.18;;;3.00;;
39968;SDS011;25648;47.808;19.004;2022-09-12T10:03:05;6.22;;;2.50;;
39968;SDS011;25648;47.808;19.004;2022-09-12T10:05:57;6.90;;;2.95;;
39968;SDS011;25648;47.808;19.004;2022-09-12T10:10:54;4.47;;;2.60;;
39968;SDS011;25648;47.808;19.004;2022-09-12T10:13:30;5.28;;;3.63;;
39968;SDS011;25648;47.808;19.004;2022-09-12T10:15:59;6.72;;;2.60;;
39968;SDS011;25648;47.808;19.004;2022-09-12T10:18:37;4.68;;;2.60;;
39968;SDS011;25648;47.808;19.004;2022-09-12T10:26:54;4.50;;;2.80;;
39968;SDS011;25648;47.808;19.004;2022-09-12T10:29:27;4.60;;;2.90;;
39968;SDS011;25648;47.808;19.004;2022-09-12T10:32:00;4.93;;;2.70;;
39968;SDS011;25648;47.808;19.004;2022-09-12T10:34:41;4.53;;;2.90;;
39968;SDS011;25648;47.808;19.004;2022-09-12T10:37:18;4.13;;;2.80;;
39968;SDS011;25648;47.808;19.004;2022-09-12T10:39:54;4.20;;;2.88;;
39968;SDS011;25648;47.808;19.004;2022-09-12T10:42:41;3.72;;;2.50;;
39968;SDS011;25648;47.808;19.004;2022-09-12T10:47:56;4.20;;;2.50;;
39968;SDS011;25648;47.808;19.004;2022-09-12T10:50:39;3.97;;;2.45;;
39968;SDS011;25648;47.808;19.004;2022-09-12T10:53:17;4.38;;;2.47;;
39968;SDS011;25648;47.808;19.004;2022-09-12T11:04:49;4.18;;;2.90;;
39968;SDS011;25648;47.808;19.004;2022-09-12T11:07:01;4.90;;;2.90;;
39968;SDS011;25648;47.808;19.004;2022-09-12T11:15:22;5.68;;;2.90;;
39968;SDS011;25648;47.808;19.004;2022-09-12T11:18:00;4.60;;;2.67;;
39968;SDS011;25648;47.808;19.004;2022-09-12T11:20:52;5.15;;;2.80;;
39968;SDS011;25648;47.808;19.004;2022-09-12T11:39:45;3.90;;;2.78;;
39968;SDS011;25648;47.808;19.004;2022-09-12T11:42:28;3.70;;;2.65;;
39968;SDS011;25648;47.808;19.004;2022-09-12T11:45:44;4.85;;;2.65;;
39968;SDS011;25648;47.808;19.004;2022-09-12T11:47:53;3.75;;;2.47;;
39968;SDS011;25648;47.808;19.004;2022-09-12T11:50:23;4.82;;;2.40;;
39968;SDS011;25648;47.808;19.004;2022-09-12T11:52:57;3.80;;;2.55;;
39968;SDS011;25648;47.808;19.004;2022-09-12T11:55:58;3.78;;;2.58;;
39968;SDS011;25648;47.808;19.004;2022-09-12T11:58:29;3.55;;;2.30;;
39968;SDS011;25648;47.808;19.004;2022-09-12T12:00:56;3.92;;;2.50;;
39968;SDS011;25648;47.808;19.004;2022-09-12T12:03:52;4.45;;;2.33;;
39968;SDS011;25648;47.808;19.004;2022-09-12T12:06:26;4.57;;;2.20;;
39968;SDS011;25648;47.808;19.004;2022-09-12T12:08:58;3.45;;;2.20;;
39968;SDS011;25648;47.808;19.004;2022-09-12T12:11:32;3.53;;;2.20;;
39968;SDS011;25648;47.808;19.004;2022-09-12T12:14:02;3.38;;;2.28;;
39968;SDS011;25648;47.808;19.004;2022-09-12T12:16:37;3.85;;;2.25;;
39968;SDS011;25648;47.808;19.004;2022-09-12T12:19:17;4.70;;;2.30;;
39968;SDS011;25648;47.808;19.004;2022-09-12T12:21:55;2.90;;;2.03;;
39968;SDS011;25648;47.808;19.004;2022-09-12T12:24:31;6.15;;;2.35;;
39968;SDS011;25648;47.808;19.004;2022-09-12T12:27:01;3.28;;;2.10;;
39968;SDS011;25648;47.808;19.004;2022-09-12T12:29:35;3.80;;;2.30;;
39968;SDS011;25648;47.808;19.004;2022-09-12T12:34:30;3.33;;;2.10;;
39968;SDS011;25648;47.808;19.004;2022-09-12T12:45:46;3.03;;;1.88;;
39968;SDS011;25648;47.808;19.004;2022-09-12T12:47:47;3.72;;;2.08;;
39968;SDS011;25648;47.808;19.004;2022-09-12T12:55:16;3.30;;;2.10;;
39968;SDS011;25648;47.808;19.004;2022-09-12T12:57:57;5.28;;;2.42;;
39968;SDS011;25648;47.808;19.004;2022-09-12T13:05:23;5.10;;;2.22;;
39968;SDS011;25648;47.808;19.004;2022-09-12T13:08:33;3.47;;;2.17;;
39968;SDS011;25648;47.808;19.004;2022-09-12T13:11:25;3.72;;;2.05;;
39968;SDS011;25648;47.808;19.004;2022-09-12T13:18:56;3.35;;;2.22;;
39968;SDS011;25648;47.808;19.004;2022-09-12T13:21:28;3.55;;;2.15;;
39968;SDS011;25648;47.808;19.004;2022-09-12T13:24:01;3.10;;;2.10;;
39968;SDS011;25648;47.808;19.004;2022-09-12T13:26:48;3.58;;;2.00;;
39968;SDS011;25648;47.808;19.004;2022-09-12T13:29:21;2.80;;;1.90;;
39968;SDS011;25648;47.808;19.004;2022-09-12T13:31:50;2.85;;;1.85;;
39968;SDS011;25648;47.808;19.004;2022-09-12T13:34:21;3.78;;;1.73;;
39968;SDS011;25648;47.808;19.004;2022-09-12T13:39:48;3.38;;;2.00;;
39968;SDS011;25648;47.808;19.004;2022-09-12T13:47:29;6.45;;;2.10;;
39968;SDS011;25648;47.808;19.004;2022-09-12T13:50:00;4.13;;;1.80;;
39968;SDS011;25648;47.808;19.004;2022-09-12T13:52:28;4.00;;;1.70;;
39968;SDS011;25648;47.808;19.004;2022-09-12T13:54:57;3.83;;;1.98;;
39968;SDS011;25648;47.808;19.004;2022-09-12T13:57:29;4.20;;;2.05;;
39968;SDS011;25648;47.808;19.004;2022-09-12T13:59:56;4.95;;;2.03;;
39968;SDS011;25648;47.808;19.004;2022-09-12T14:02:24;3.03;;;1.83;;
39968;SDS011;25648;47.808;19.004;2022-09-12T14:04:52;4.22;;;1.90;;
39968;SDS011;25648;47.808;19.004;2022-09-12T14:10:20;3.08;;;1.60;;
39968;SDS011;25648;47.808;19.004;2022-09-12T14:12:55;3.30;;;1.95;;
39968;SDS011;25648;47.808;19.004;2022-09-12T14:15:24;4.68;;;1.85;;
39968;SDS011;25648;47.808;19.004;2022-09-12T14:17:53;3.40;;;1.70;;
39968;SDS011;25648;47.808;19.004;2022-09-12T14:20:26;4.43;;;1.98;;
39968;SDS011;25648;47.808;19.004;2022-09-12T14:22:58;2.85;;;1.70;;
39968;SDS011;25648;47.808;19.004;2022-09-12T14:25:37;2.78;;;1.70;;
39968;SDS011;25648;47.808;19.004;2022-09-12T14:28:05;3.05;;;1.90;;
39968;SDS011;25648;47.808;19.004;2022-09-12T14:30:35;4.15;;;1.60;;
39968;SDS011;25648;47.808;19.004;2022-09-12T14:40:46;6.22;;;1.90;;
39968;SDS011;25648;47.808;19.004;2022-09-12T14:43:20;4.95;;;1.80;;
39968;SDS011;25648;47.808;19.004;2022-09-12T14:48:42;4.20;;;1.88;;
39968;SDS011;25648;47.808;19.004;2022-09-12T14:53:46;3.40;;;1.83;;
39968;SDS011;25648;47.808;19.004;2022-09-12T14:56:13;3.00;;;1.80;;
39968;SDS011;25648;47.808;19.004;2022-09-12T14:58:39;4.43;;;1.80;;
39968;SDS011;25648;47.808;19.004;2022-09-12T15:05:57;3.42;;;1.73;;
39968;SDS011;25648;47.808;19.004;2022-09-12T15:08:24;4.72;;;1.80;;
39968;SDS011;25648;47.808;19.004;2022-09-12T15:10:50;3.50;;;1.70;;
39968;SDS011;25648;47.808;19.004;2022-09-12T15:13:17;4.20;;;1.70;;
39968;SDS011;25648;47.808;19.004;2022-09-12T15:15:46;3.05;;;1.80;;
39968;SDS011;25648;47.808;19.004;2022-09-12T15:18:14;3.40;;;1.70;;
39968;SDS011;25648;47.808;19.004;2022-09-12T15:20:50;4.10;;;1.67;;
39968;SDS011;25648;47.808;19.004;2022-09-12T15:23:26;4.80;;;1.73;;
39968;SDS011;25648;47.808;19.004;2022-09-12T15:29:08;3.60;;;2.05;;
39968;SDS011;25648;47.808;19.004;2022-09-12T15:31:33;3.58;;;1.90;;
39968;SDS011;25648;47.808;19.004;2022-09-12T15:34:00;7.00;;;2.00;;
39968;SDS011;25648;47.808;19.004;2022-09-12T15:36:26;2.90;;;1.70;;
39968;SDS011;25648;47.808;19.004;2022-09-12T15:38:55;7.28;;;2.28;;
39968;SDS011;25648;47.808;19.004;2022-09-12T15:41:22;3.75;;;1.95;;
39968;SDS011;25648;47.808;19.004;2022-09-12T15:43:53;2.58;;;1.60;;
39968;SDS011;25648;47.808;19.004;2022-09-12T15:46:18;4.43;;;1.90;;
39968;SDS011;25648;47.808;19.004;2022-09-12T15:48:47;3.40;;;1.90;;
39968;SDS011;25648;47.808;19.004;2022-09-12T15:51:20;3.92;;;2.00;;
39968;SDS011;25648;47.808;19.004;2022-09-12T15:53:46;3.67;;;1.80;;
39968;SDS011;25648;47.808;19.004;2022-09-12T15:56:17;6.60;;;2.35;;
39968;SDS011;25648;47.808;19.004;2022-09-12T15:58:49;2.90;;;1.90;;
39968;SDS011;25648;47.808;19.004;2022-09-12T16:01:15;3.58;;;2.13;;
39968;SDS011;25648;47.808;19.004;2022-09-12T16:03:42;3.53;;;1.67;;
39968;SDS011;25648;47.808;19.004;2022-09-12T16:06:10;4.30;;;1.90;;
39968;SDS011;25648;47.808;19.004;2022-09-12T16:08:37;2.97;;;1.70;;
39968;SDS011;25648;47.808;19.004;2022-09-12T16:11:18;3.20;;;1.80;;
39968;SDS011;25648;47.808;19.004;2022-09-12T16:13:54;3.17;;;1.67;;
39968;SDS011;25648;47.808;19.004;2022-09-12T16:16:20;3.33;;;1.90;;
39968;SDS011;25648;47.808;19.004;2022-09-12T16:18:46;3.13;;;1.95;;
39968;SDS011;25648;47.808;19.004;2022-09-12T16:21:12;5.63;;;2.03;;
39968;SDS011;25648;47.808;19.004;2022-09-12T16:23:37;3.30;;;1.75;;
39968;SDS011;25648;47.808;19.004;2022-09-12T16:26:05;4.55;;;2.38;;
39968;SDS011;25648;47.808;19.004;2022-09-12T16:28:31;4.55;;;1.80;;
39968;SDS011;25648;47.808;19.004;2022-09-12T16:30:58;3.83;;;2.05;;
39968;SDS011;25648;47.808;19.004;2022-09-12T16:33:26;3.95;;;2.22;;
39968;SDS011;25648;47.808;19.004;2022-09-12T16:35:52;3.47;;;1.90;;
39968;SDS011;25648;47.808;19.004;2022-09-12T16:38:24;5.10;;;1.95;;
39968;SDS011;25648;47.808;19.004;2022-09-12T16:40:50;5.05;;;2.03;;
39968;SDS011;25648;47.808;19.004;2022-09-12T16:43:16;4.65;;;2.00;;
39968;SDS011;25648;47.808;19.004;2022-09-12T16:45:42;3.10;;;1.83;;
39968;SDS011;25648;47.808;19.004;2022-09-12T16:48:08;3.75;;;1.95;;
39968;SDS011;25648;47.808;19.004;2022-09-12T16:50:34;3.28;;;1.90;;
39968;SDS011;25648;47.808;19.004;2022-09-12T16:53:02;5.97;;;2.00;;
39968;SDS011;25648;47.808;19.004;2022-09-12T16:55:28;3.30;;;1.92;;
39968;SDS011;25648;47.808;19.004;2022-09-12T16:57:54;3.83;;;1.98;;
39968;SDS011;25648;47.808;19.004;2022-09-12T17:00:20;3.80;;;1.95;;
39968;SDS011;25648;47.808;19.004;2022-09-12T17:02:46;7.47;;;2.20;;
39968;SDS011;25648;47.808;19.004;2022-09-12T17:05:12;3.55;;;2.10;;
39968;SDS011;25648;47.808;19.004;2022-09-12T17:07:41;7.18;;;2.38;;
39968;SDS011;25648;47.808;19.004;2022-09-12T17:10:07;6.43;;;2.28;;
39968;SDS011;25648;47.808;19.004;2022-09-12T17:12:33;3.67;;;2.25;;
39968;SDS011;25648;47.808;19.004;2022-09-12T17:14:59;4.95;;;2.35;;
39968;SDS011;25648;47.808;19.004;2022-09-12T17:17:24;3.35;;;2.47;;
39968;SDS011;25648;47.808;19.004;2022-09-12T17:19:50;7.55;;;2.42;;
39968;SDS011;25648;47.808;19.004;2022-09-12T17:22:17;3.90;;;2.20;;
39968;SDS011;25648;47.808;19.004;2022-09-12T17:24:43;4.30;;;2.40;;
39968;SDS011;25648;47.808;19.004;2022-09-12T17:27:08;6.25;;;2.30;;
39968;SDS011;25648;47.808;19.004;2022-09-12T17:29:34;10.55;;;3.13;;
39968;SDS011;25648;47.808;19.004;2022-09-12T17:32:01;5.95;;;2.40;;
39968;SDS011;25648;47.808;19.004;2022-09-12T17:34:27;3.60;;;2.38;;
39968;SDS011;25648;47.808;19.004;2022-09-12T17:36:53;3.92;;;2.50;;
39968;SDS011;25648;47.808;19.004;2022-09-12T17:39:18;3.47;;;2.40;;
39968;SDS011;25648;47.808;19.004;2022-09-12T17:41:44;4.05;;;2.30;;
39968;SDS011;25648;47.808;19.004;2022-09-12T17:44:10;4.70;;;2.65;;
39968;SDS011;25648;47.808;19.004;2022-09-12T17:46:37;21.50;;;3.20;;
39968;SDS011;25648;47.808;19.004;2022-09-12T17:49:04;41.40;;;3.40;;
39968;SDS011;25648;47.808;19.004;2022-09-12T17:51:32;6.35;;;2.85;;